<?xml version='1.0' encoding='UTF-8'?>
<gpx xmlns="http://www.topografix.com/GPX/1/1" creator="www.balnam.be" version="1.1" xmlns:xsi="http://www.w3.org/2001/XMLSchema-instance" xsi:schemaLocation="http://www.topografix.com/GPX/1/1 http://www.topografix.com/GPX/1/1/gpx.xsd">
<trk>
<name>hezwd20</name>
<cmt>v</cmt>
<desc>Wodecq Chemin n°20 Sentier du Sehut / Buis</desc>
<link href="https://chemins.be/wodecq/chemin/20"/><trkseg>
<trkpt lat="50.707622" lon="3.715863"><time>2026-05-02T18:14:30Z</time></trkpt>
<trkpt lat="50.707595" lon="3.717086"><time>2026-05-02T18:24:30Z</time></trkpt>
<trkpt lat="50.707405" lon="3.717611"><time>2026-05-02T18:34:30Z</time></trkpt>
<trkpt lat="50.706868" lon="3.722729"><time>2026-05-02T18:44:30Z</time></trkpt>
<trkpt lat="50.706318" lon="3.723974"><time>2026-05-02T18:54:30Z</time></trkpt>
<trkpt lat="50.706237" lon="3.724719"><time>2026-05-02T19:04:30Z</time></trkpt>
<trkpt lat="50.706128" lon="3.724928"><time>2026-05-02T19:14:30Z</time></trkpt>
<trkpt lat="50.705815" lon="3.725690"><time>2026-05-02T19:24:30Z</time></trkpt>
<trkpt lat="50.706073" lon="3.728405"><time>2026-05-02T19:34:30Z</time></trkpt>
<trkpt lat="50.704898" lon="3.731752"><time>2026-05-02T19:44:30Z</time></trkpt>
<trkpt lat="50.704252" lon="3.732750"><time>2026-05-02T19:54:30Z</time></trkpt>
</trkseg></trk>
<trk>
<name>hezwd20</name>
<cmt>r</cmt>
<desc>Wodecq Chemin n°20 Sentier du Sehut / Buis</desc>
<link href="https://chemins.be/wodecq/chemin/20"/><trkseg>
<trkpt lat="50.704252" lon="3.732750"><time>2026-05-02T19:54:30Z</time></trkpt>
<trkpt lat="50.703294" lon="3.733436"><time>2026-05-02T20:04:30Z</time></trkpt>
<trkpt lat="50.702846" lon="3.734928"><time>2026-05-02T20:14:30Z</time></trkpt>
</trkseg></trk>
<trk>
<name>hezwd20</name>
<cmt>v</cmt>
<desc>Wodecq Chemin n°20 Sentier du Sehut / Buis</desc>
<link href="https://chemins.be/wodecq/chemin/20"/><trkseg>
<trkpt lat="50.702846" lon="3.734928"><time>2026-05-02T20:14:30Z</time></trkpt>
<trkpt lat="50.702321" lon="3.734432"><time>2026-05-02T20:24:30Z</time></trkpt>
<trkpt lat="50.701735" lon="3.734114"><time>2026-05-02T20:34:30Z</time></trkpt>
<trkpt lat="50.701482" lon="3.733948"><time>2026-05-02T20:44:30Z</time></trkpt>
<trkpt lat="50.701338" lon="3.733808"><time>2026-05-02T20:54:30Z</time></trkpt>
<trkpt lat="50.701121" lon="3.733528"><time>2026-05-02T21:04:30Z</time></trkpt>
<trkpt lat="50.700682" lon="3.733845"><time>2026-05-02T21:14:30Z</time></trkpt>
<trkpt lat="50.700548" lon="3.734031"><time>2026-05-02T21:24:30Z</time></trkpt>
<trkpt lat="50.700096" lon="3.735212"><time>2026-05-02T21:34:30Z</time></trkpt>
<trkpt lat="50.700054" lon="3.735293"><time>2026-05-02T21:44:30Z</time></trkpt>
<trkpt lat="50.699049" lon="3.734397"><time>2026-05-02T21:54:30Z</time></trkpt>
</trkseg>
</trk>
</gpx>